Terminal Aerodrome Forecast
Issued by NWS St Louis, MO

Home | Current Version | Previous Version | Text Only | Print | Product List | Glossary On
Versions: 1 2 3 4 5 6 7 8 9 10 11 12 13 14 15 16 17 18 19 20
001
FTUS43 KLSX 081720
TAFCOU
TAF
KCOU 081720Z 0818/0918 29013G19KT P6SM FEW250
     FM082300 29009KT P6SM FEW250
     FM090900 30005KT P6SM SKC=

USA.gov is the U.S. government's official web portal to all federal, state and local government web resources and services.